WWW201 KTNX-KLAS
Flight info
| Callsign | WWW201 |
|---|---|
| Flight time | 0h 38m |
| Altitude | 15000 |
| Route | LEAHI1 LEAHI ESSAA BYRDY JAYSN3 |
| Aircraft | B736/M-SDE2E3FGHIRWXY/LB1 |
Departure
| Time | 2026-05-04 05:34 |
|---|---|
| Airport | Tonopah Test Range Airport (KTNX) |
Arrival
| Time | 2026-05-04 06:13 |
|---|---|
| Airport | Harry Reid International Airport (KLAS) |
| Time | Latitude | Longitude | Altitude | Speed | Heading |
|---|---|---|---|---|---|
| 2026-05-04 05:31 | 37.78448 | -116.76692 | 5553 ft | 0 kts | 67° |
| 2026-05-04 05:31 | 37.78452 | -116.76681 | 5554 ft | 2 kts | 67° |
| 2026-05-04 05:32 | 37.78470 | -116.76659 | 5553 ft | 5 kts | 20° |
| 2026-05-04 05:32 | 37.78515 | -116.76679 | 5555 ft | 9 kts | 340° |
| 2026-05-04 05:32 | 37.78554 | -116.76740 | 5553 ft | 12 kts | 255° |
| 2026-05-04 05:33 | 37.78467 | -116.77001 | 5556 ft | 20 kts | 248° |
| 2026-05-04 05:33 | 37.78409 | -116.77177 | 5556 ft | 23 kts | 245° |
| 2026-05-04 05:33 | 37.78455 | -116.77313 | 5555 ft | 25 kts | 336° |
| 2026-05-04 05:33 | 37.78813 | -116.77503 | 5555 ft | 87 kts | 338° |
| 2026-05-04 05:34 | 37.79542 | -116.77889 | 5553 ft | 138 kts | 337° |
| 2026-05-04 05:34 | 37.80543 | -116.78426 | 5661 ft | 167 kts | 336° |
| 2026-05-04 05:34 | 37.81612 | -116.79040 | 6114 ft | 170 kts | 338° |
| 2026-05-04 05:34 | 37.82723 | -116.79684 | 6511 ft | 176 kts | 337° |
| 2026-05-04 05:35 | 37.83800 | -116.80410 | 6942 ft | 182 kts | 317° |
| 2026-05-04 05:35 | 37.84369 | -116.81827 | 7296 ft | 193 kts | 269° |
| 2026-05-04 05:35 | 37.83976 | -116.83499 | 7582 ft | 209 kts | 233° |
| 2026-05-04 05:35 | 37.82947 | -116.84901 | 7852 ft | 229 kts | 218° |
| 2026-05-04 05:36 | 37.81652 | -116.86273 | 8046 ft | 258 kts | 218° |
| 2026-05-04 05:36 | 37.80209 | -116.87810 | 8434 ft | 281 kts | 219° |
| 2026-05-04 05:36 | 37.78713 | -116.89450 | 9273 ft | 287 kts | 220° |
| 2026-05-04 05:36 | 37.77217 | -116.91128 | 10198 ft | 290 kts | 220° |
| 2026-05-04 05:37 | 37.75658 | -116.92904 | 10550 ft | 315 kts | 221° |
| 2026-05-04 05:37 | 37.73968 | -116.94852 | 10754 ft | 342 kts | 221° |
| 2026-05-04 05:37 | 37.72166 | -116.96949 | 11218 ft | 357 kts | 221° |
| 2026-05-04 05:38 | 37.68491 | -117.01257 | 12966 ft | 362 kts | 221° |
| 2026-05-04 05:38 | 37.66648 | -117.03423 | 13884 ft | 363 kts | 221° |
| 2026-05-04 05:38 | 37.64811 | -117.05582 | 14464 ft | 358 kts | 220° |
| 2026-05-04 05:38 | 37.62991 | -117.07718 | 14759 ft | 357 kts | 220° |
| 2026-05-04 05:39 | 37.61140 | -117.09886 | 14801 ft | 367 kts | 220° |
| 2026-05-04 05:39 | 37.57301 | -117.14155 | 14783 ft | 365 kts | 209° |
| 2026-05-04 05:39 | 37.54984 | -117.15346 | 14798 ft | 360 kts | 191° |
| 2026-05-04 05:40 | 37.50084 | -117.14825 | 14805 ft | 358 kts | 159° |
| 2026-05-04 05:40 | 37.47948 | -117.13282 | 14799 ft | 361 kts | 143° |
| 2026-05-04 05:40 | 37.46071 | -117.11169 | 14803 ft | 363 kts | 139° |
| 2026-05-04 05:41 | 37.44251 | -117.08964 | 14794 ft | 364 kts | 138° |
| 2026-05-04 05:41 | 37.42443 | -117.06733 | 14791 ft | 364 kts | 137° |
| 2026-05-04 05:41 | 37.40632 | -117.04498 | 14785 ft | 364 kts | 138° |
| 2026-05-04 05:41 | 37.38817 | -117.02273 | 14783 ft | 364 kts | 138° |
| 2026-05-04 05:42 | 37.36997 | -117.00055 | 14785 ft | 364 kts | 138° |
| 2026-05-04 05:42 | 37.35175 | -116.97846 | 14784 ft | 364 kts | 138° |
| 2026-05-04 05:42 | 37.33351 | -116.95645 | 14782 ft | 363 kts | 138° |
| 2026-05-04 05:42 | 37.31527 | -116.93450 | 14782 ft | 363 kts | 139° |
| 2026-05-04 05:43 | 37.29699 | -116.91255 | 14786 ft | 363 kts | 138° |
| 2026-05-04 05:43 | 37.27869 | -116.89060 | 14781 ft | 363 kts | 139° |
| 2026-05-04 05:43 | 37.26043 | -116.86873 | 14765 ft | 363 kts | 139° |
| 2026-05-04 05:45 | 37.13228 | -116.71567 | 14759 ft | 365 kts | 139° |
| 2026-05-04 05:45 | 37.11389 | -116.69372 | 14758 ft | 365 kts | 139° |
| 2026-05-04 05:47 | 36.98557 | -116.54125 | 14736 ft | 363 kts | 139° |
| 2026-05-04 05:47 | 36.96720 | -116.51949 | 14743 ft | 364 kts | 139° |
| 2026-05-04 05:47 | 36.94879 | -116.49768 | 14754 ft | 365 kts | 139° |
| 2026-05-04 05:48 | 36.93055 | -116.47560 | 14747 ft | 366 kts | 138° |
| 2026-05-04 05:48 | 36.91212 | -116.45357 | 14742 ft | 367 kts | 139° |
| 2026-05-04 05:48 | 36.89348 | -116.43172 | 14736 ft | 367 kts | 139° |
| 2026-05-04 05:48 | 36.87483 | -116.40991 | 14745 ft | 367 kts | 139° |
| 2026-05-04 05:49 | 36.85621 | -116.38811 | 14729 ft | 366 kts | 139° |
| 2026-05-04 05:49 | 36.83764 | -116.36632 | 14729 ft | 366 kts | 139° |
| 2026-05-04 05:49 | 36.81909 | -116.34452 | 14732 ft | 366 kts | 139° |
| 2026-05-04 05:49 | 36.80059 | -116.32277 | 14717 ft | 365 kts | 139° |
| 2026-05-04 05:51 | 36.66909 | -116.17323 | 14719 ft | 369 kts | 139° |
| 2026-05-04 05:51 | 36.65013 | -116.15171 | 14717 ft | 369 kts | 140° |
| 2026-05-04 05:52 | 36.63112 | -116.13017 | 14717 ft | 369 kts | 139° |
| 2026-05-04 05:52 | 36.61211 | -116.10864 | 14720 ft | 369 kts | 140° |
| 2026-05-04 05:52 | 36.59310 | -116.08712 | 14731 ft | 369 kts | 139° |
| 2026-05-04 05:52 | 36.57409 | -116.06560 | 14737 ft | 370 kts | 140° |
| 2026-05-04 05:53 | 36.55504 | -116.04406 | 14717 ft | 370 kts | 140° |
| 2026-05-04 05:54 | 36.42171 | -115.89375 | 14757 ft | 370 kts | 139° |
| 2026-05-04 05:55 | 36.40261 | -115.87235 | 14768 ft | 370 kts | 140° |
| 2026-05-04 05:55 | 36.38355 | -115.85087 | 14765 ft | 370 kts | 140° |
| 2026-05-04 05:55 | 36.36449 | -115.82940 | 14782 ft | 370 kts | 140° |
| 2026-05-04 05:55 | 36.34541 | -115.80795 | 14782 ft | 370 kts | 140° |
| 2026-05-04 05:56 | 36.32635 | -115.78663 | 14786 ft | 369 kts | 140° |
| 2026-05-04 05:56 | 36.30726 | -115.76532 | 14780 ft | 369 kts | 140° |
| 2026-05-04 05:56 | 36.28824 | -115.74388 | 14805 ft | 369 kts | 140° |
| 2026-05-04 05:56 | 36.26922 | -115.72249 | 14798 ft | 369 kts | 140° |
| 2026-05-04 05:57 | 36.24982 | -115.70171 | 14824 ft | 368 kts | 141° |
| 2026-05-04 05:57 | 36.23085 | -115.68024 | 14842 ft | 371 kts | 139° |
| 2026-05-04 05:57 | 36.21190 | -115.65827 | 14804 ft | 374 kts | 141° |
| 2026-05-04 05:57 | 36.19264 | -115.63683 | 14786 ft | 371 kts | 141° |
| 2026-05-04 05:58 | 36.17343 | -115.61549 | 14816 ft | 371 kts | 140° |
| 2026-05-04 05:58 | 36.15570 | -115.59223 | 14807 ft | 374 kts | 130° |
| 2026-05-04 05:58 | 36.14040 | -115.56628 | 14815 ft | 369 kts | 128° |
| 2026-05-04 05:58 | 36.12572 | -115.54078 | 14580 ft | 362 kts | 128° |
| 2026-05-04 05:59 | 36.11132 | -115.51587 | 14165 ft | 359 kts | 128° |
| 2026-05-04 05:59 | 36.09684 | -115.49096 | 13703 ft | 353 kts | 129° |
| 2026-05-04 05:59 | 36.08247 | -115.46650 | 13114 ft | 350 kts | 129° |
| 2026-05-04 05:59 | 36.06825 | -115.44235 | 12576 ft | 346 kts | 129° |
| 2026-05-04 06:00 | 36.05419 | -115.41844 | 12037 ft | 342 kts | 129° |
| 2026-05-04 06:00 | 36.04030 | -115.39486 | 11496 ft | 337 kts | 129° |
| 2026-05-04 06:00 | 36.02694 | -115.37120 | 10973 ft | 336 kts | 123° |
| 2026-05-04 06:00 | 36.01803 | -115.34485 | 10766 ft | 329 kts | 111° |
| 2026-05-04 06:01 | 36.01383 | -115.31735 | 10511 ft | 324 kts | 99° |
| 2026-05-04 06:01 | 36.01253 | -115.29065 | 10308 ft | 315 kts | 97° |
| 2026-05-04 06:03 | 36.00464 | -115.11921 | 8890 ft | 261 kts | 99° |
| 2026-05-04 06:03 | 36.00351 | -115.09709 | 8677 ft | 256 kts | 99° |
| 2026-05-04 06:05 | 36.01723 | -114.95927 | 7795 ft | 237 kts | 27° |
| 2026-05-04 06:05 | 36.04763 | -114.94245 | 7536 ft | 243 kts | 24° |
| 2026-05-04 06:05 | 36.05805 | -114.93681 | 7220 ft | 251 kts | 24° |
| 2026-05-04 06:06 | 36.07412 | -114.92801 | 6987 ft | 248 kts | 24° |
| 2026-05-04 06:06 | 36.08946 | -114.91953 | 6908 ft | 235 kts | 24° |
| 2026-05-04 06:06 | 36.10417 | -114.91212 | 6776 ft | 222 kts | 11° |
| 2026-05-04 06:06 | 36.11890 | -114.91277 | 6421 ft | 209 kts | 329° |
| 2026-05-04 06:07 | 36.12822 | -114.92471 | 6141 ft | 187 kts | 279° |
| 2026-05-04 06:07 | 36.13034 | -114.94016 | 6041 ft | 186 kts | 285° |
| 2026-05-04 06:07 | 36.13556 | -114.95496 | 5982 ft | 188 kts | 282° |
| 2026-05-04 06:07 | 36.13821 | -114.97095 | 5669 ft | 198 kts | 272° |
| 2026-05-04 06:08 | 36.13908 | -114.98805 | 5282 ft | 199 kts | 269° |
| 2026-05-04 06:08 | 36.13972 | -115.00491 | 4991 ft | 196 kts | 269° |
| 2026-05-04 06:08 | 36.14042 | -115.02142 | 4745 ft | 188 kts | 269° |
| 2026-05-04 06:08 | 36.14115 | -115.03726 | 4491 ft | 181 kts | 271° |
| 2026-05-04 06:09 | 36.14170 | -115.05268 | 4098 ft | 180 kts | 261° |
| 2026-05-04 06:09 | 36.14233 | -115.06768 | 4090 ft | 177 kts | 272° |
| 2026-05-04 06:11 | 36.11995 | -115.14473 | 2753 ft | 135 kts | 210° |
| 2026-05-04 06:11 | 36.11165 | -115.14958 | 2484 ft | 128 kts | 207° |
| 2026-05-04 06:13 | 36.08420 | -115.16679 | 2152 ft | 6 kts | 11° |
| 2026-05-04 06:14 | 36.09018 | -115.16428 | 2139 ft | 10 kts | 23° |
| 2026-05-04 06:14 | 36.09083 | -115.16391 | 2136 ft | 11 kts | 25° |
| 2026-05-04 06:15 | 36.09153 | -115.16381 | 2136 ft | 9 kts | 333° |
| 2026-05-04 06:15 | 36.09201 | -115.16420 | 2138 ft | 6 kts | 320° |
| 2026-05-04 06:15 | 36.09198 | -115.16463 | 2141 ft | 2 kts | 239° |
| 2026-05-04 06:15 | 36.09195 | -115.16468 | 2139 ft | 0 kts | 238° |